createdAt,value
2018-05-21T00:05:55.356Z,0
2018-05-21T00:15:55.463Z,0
2018-05-21T00:25:55.522Z,0
2018-05-21T00:35:55.241Z,0
2018-05-21T00:45:55.213Z,0
2018-05-21T00:55:55.231Z,0
2018-05-21T01:05:55.335Z,0
2018-05-21T01:15:55.239Z,0
2018-05-21T01:25:55.317Z,0
2018-05-21T01:35:55.215Z,0
2018-05-21T01:45:55.235Z,0
2018-05-21T01:55:55.228Z,0
2018-05-21T02:05:55.207Z,0
2018-05-21T02:15:55.196Z,0
2018-05-21T02:25:55.196Z,0
2018-05-21T02:35:55.216Z,0
2018-05-21T02:45:55.219Z,0
2018-05-21T02:55:55.244Z,0
2018-05-21T03:05:55.199Z,0
2018-05-21T03:15:55.256Z,0
2018-05-21T03:25:55.214Z,5
2018-05-21T03:35:55.196Z,10
2018-05-21T03:45:55.194Z,20
2018-05-21T03:55:55.180Z,25
2018-05-21T04:05:55.242Z,35
2018-05-21T04:15:55.229Z,45
2018-05-21T04:25:55.272Z,50
2018-05-21T04:35:55.240Z,60
2018-05-21T04:45:55.198Z,70
2018-05-21T04:55:55.238Z,80
2018-05-21T05:05:55.199Z,80
2018-05-21T05:15:55.233Z,85
2018-05-21T05:25:55.191Z,90
2018-05-21T05:35:55.251Z,95
2018-05-21T05:45:55.213Z,100
2018-05-21T05:55:55.190Z,110
2018-05-21T06:05:55.205Z,135
2018-05-21T06:15:55.236Z,200
2018-05-21T06:25:55.282Z,270
2018-05-21T06:35:55.227Z,285
2018-05-21T06:45:55.240Z,300
2018-05-21T06:55:55.216Z,320
2018-05-21T07:05:55.229Z,325
2018-05-21T07:15:55.284Z,345
2018-05-21T07:25:55.233Z,355
2018-05-21T07:35:55.213Z,360
2018-05-21T07:45:55.256Z,365
2018-05-21T07:55:55.369Z,365
2018-05-21T08:05:55.348Z,365
2018-05-21T08:15:55.282Z,365
2018-05-21T08:25:55.339Z,355
2018-05-21T08:35:55.260Z,335
2018-05-21T08:45:56.047Z,315
2018-05-21T08:55:55.328Z,195
2018-05-21T09:05:55.342Z,140
2018-05-21T09:15:55.300Z,145
2018-05-21T09:25:55.367Z,140
2018-05-21T09:35:55.354Z,145
2018-05-21T09:45:55.297Z,140
2018-05-21T09:55:55.318Z,165
2018-05-21T10:05:55.315Z,150
2018-05-21T10:15:55.317Z,135
2018-05-21T10:25:55.391Z,135
2018-05-21T10:35:55.312Z,135
2018-05-21T10:45:55.308Z,130
2018-05-21T10:55:55.363Z,125
2018-05-21T11:05:55.355Z,125
2018-05-21T11:15:55.539Z,125
2018-05-21T11:25:55.586Z,125
2018-05-21T11:35:55.390Z,125
2018-05-21T11:45:55.730Z,125
2018-05-21T11:55:55.466Z,125
2018-05-21T12:05:55.369Z,125
2018-05-21T12:15:55.343Z,125
2018-05-21T12:26:01.620Z,125
2018-05-21T12:35:55.539Z,120
2018-05-21T12:52:22.209Z,120
2018-05-21T12:55:55.351Z,120
2018-05-21T13:05:55.359Z,120
2018-05-21T13:15:55.321Z,120
2018-05-21T13:25:55.338Z,120
2018-05-21T13:35:55.401Z,120
2018-05-21T13:45:55.661Z,120
2018-05-21T13:55:55.446Z,120
2018-05-21T14:05:55.424Z,115
2018-05-21T14:15:55.404Z,115
2018-05-21T14:25:55.352Z,115
2018-05-21T14:35:55.572Z,115
2018-05-21T14:45:55.354Z,110
2018-05-21T14:55:55.482Z,110
2018-05-21T15:05:55.754Z,110
2018-05-21T15:15:55.705Z,110
2018-05-21T15:25:55.577Z,105
2018-05-21T15:35:55.722Z,105
2018-05-21T15:45:55.827Z,105
2018-05-21T15:55:56.418Z,100
2018-05-21T16:05:55.826Z,100
2018-05-21T16:15:55.464Z,100
2018-05-21T16:25:55.465Z,95
2018-05-21T16:35:55.381Z,95
2018-05-21T16:45:55.395Z,90
2018-05-21T16:55:55.544Z,85
2018-05-21T17:05:55.404Z,80
2018-05-21T17:15:55.702Z,80
2018-05-21T17:25:55.396Z,75
2018-05-21T17:35:55.469Z,70
2018-05-21T17:45:55.375Z,70
2018-05-21T17:55:57.381Z,60
2018-05-21T18:05:55.788Z,55
2018-05-21T18:15:55.467Z,50
2018-05-21T18:25:55.579Z,45
2018-05-21T18:35:55.604Z,35
2018-05-21T18:45:55.551Z,30
2018-05-21T18:55:55.438Z,20
2018-05-21T19:05:55.474Z,15
2018-05-21T19:15:55.495Z,5
2018-05-21T19:25:55.455Z,5
2018-05-21T19:35:55.518Z,0
2018-05-21T19:45:55.477Z,0
2018-05-21T19:55:55.647Z,0
2018-05-21T20:05:55.448Z,0
2018-05-21T20:15:55.498Z,0
2018-05-21T20:25:55.738Z,0
2018-05-21T20:35:55.470Z,0
2018-05-21T20:45:55.471Z,0
2018-05-21T20:55:55.656Z,0
2018-05-21T21:05:55.477Z,0
2018-05-21T21:15:55.905Z,0
2018-05-21T21:25:56.119Z,0
2018-05-21T21:35:55.831Z,0
2018-05-21T21:45:55.663Z,0
2018-05-21T21:55:55.575Z,0
2018-05-21T22:05:55.432Z,0
2018-05-21T22:15:56.077Z,0
2018-05-21T22:25:55.421Z,0
2018-05-21T22:35:55.452Z,0
2018-05-21T22:45:55.446Z,0
2018-05-21T22:55:55.457Z,0
2018-05-21T23:05:55.467Z,0
2018-05-21T23:15:55.498Z,0
2018-05-21T23:25:55.483Z,0
2018-05-21T23:35:55.386Z,0
2018-05-21T23:45:55.401Z,0
2018-05-21T23:55:55.541Z,0
